createdAt,value
2018-02-18T00:02:21.839Z,15.94
2018-02-18T00:04:48.639Z,15.81
2018-02-18T00:07:15.255Z,15.82
2018-02-18T00:09:42.180Z,15.92
2018-02-18T00:12:07.955Z,15.93
2018-02-18T00:14:37.694Z,15.75
2018-02-18T00:17:03.503Z,15.96
2018-02-18T00:19:29.351Z,15.80
2018-02-18T00:21:55.155Z,15.94
2018-02-18T00:24:21.968Z,15.90
2018-02-18T00:26:48.669Z,15.65
2018-02-18T00:29:14.463Z,15.58
2018-02-18T00:31:40.271Z,15.64
2018-02-18T00:34:06.092Z,15.70
2018-02-18T00:36:32.854Z,15.86
2018-02-18T00:38:58.646Z,15.97
2018-02-18T00:41:24.474Z,16.05
2018-02-18T00:43:50.275Z,15.96
2018-02-18T00:46:17.078Z,16.02
2018-02-18T00:48:42.871Z,15.95
2018-02-18T00:51:09.613Z,15.93
2018-02-18T00:53:35.406Z,16.08
2018-02-18T00:56:01.998Z,15.99
2018-02-18T00:58:27.834Z,15.98
2018-02-18T01:00:54.451Z,15.90
2018-02-18T01:03:21.252Z,15.83
2018-02-18T01:05:47.039Z,15.90
2018-02-18T01:08:13.743Z,15.89
2018-02-18T01:10:39.533Z,15.98
2018-02-18T01:13:06.220Z,15.91
2018-02-18T01:15:32.066Z,15.81
2018-02-18T01:17:58.746Z,15.69
2018-02-18T01:20:25.449Z,15.90
2018-02-18T01:22:52.276Z,15.92
2018-02-18T01:25:18.074Z,15.92
2018-02-18T01:27:44.747Z,15.83
2018-02-18T01:30:11.498Z,15.90
2018-02-18T01:32:38.291Z,15.81
2018-02-18T01:35:04.140Z,15.76
2018-02-18T01:37:29.939Z,15.78
2018-02-18T01:39:55.775Z,15.89
2018-02-18T01:42:21.572Z,15.81
2018-02-18T01:44:47.401Z,15.87
2018-02-18T01:47:14.103Z,15.93
2018-02-18T01:49:40.738Z,15.80
2018-02-18T01:52:06.544Z,15.96
2018-02-18T01:54:32.341Z,15.88
2018-02-18T01:56:58.132Z,15.89
2018-02-18T01:59:24.710Z,15.99
2018-02-18T02:01:50.514Z,15.79
2018-02-18T02:04:16.321Z,15.79
2018-02-18T02:06:43.034Z,15.93
2018-02-18T02:09:08.829Z,15.97
2018-02-18T02:11:35.460Z,15.88
2018-02-18T02:14:02.285Z,15.84
2018-02-18T02:16:28.093Z,15.75
2018-02-18T02:18:53.928Z,15.74
2018-02-18T02:21:19.718Z,15.76
2018-02-18T02:23:46.367Z,15.71
2018-02-18T02:26:12.175Z,15.84
2018-02-18T02:28:38.039Z,15.77
2018-02-18T02:31:03.831Z,15.83
2018-02-18T02:33:29.669Z,15.76
2018-02-18T02:35:55.455Z,15.81
2018-02-18T02:38:21.286Z,15.76
2018-02-18T02:40:47.089Z,15.93
2018-02-18T02:43:12.891Z,15.89
2018-02-18T02:45:38.698Z,15.88
2018-02-18T02:48:05.607Z,15.78
2018-02-18T02:50:31.410Z,15.84
2018-02-18T02:52:57.203Z,15.89
2018-02-18T02:55:22.994Z,15.88
2018-02-18T02:57:48.796Z,15.92
2018-02-18T03:00:14.598Z,15.84
2018-02-18T03:02:40.406Z,15.90
2018-02-18T03:05:06.258Z,15.98
2018-02-18T03:07:32.050Z,15.79
2018-02-18T03:09:57.881Z,15.87
2018-02-18T03:12:23.686Z,15.94
2018-02-18T03:14:49.545Z,15.97
2018-02-18T03:17:15.346Z,15.72
2018-02-18T03:19:41.144Z,15.83
2018-02-18T03:22:06.990Z,15.85
2018-02-18T03:24:32.834Z,15.68
2018-02-18T03:26:58.674Z,15.78
2018-02-18T03:29:24.474Z,15.89
2018-02-18T03:31:51.254Z,15.85
2018-02-18T03:34:17.050Z,15.80
2018-02-18T03:36:42.883Z,15.74
2018-02-18T03:39:08.686Z,15.89
2018-02-18T03:41:34.530Z,15.79
2018-02-18T03:44:00.371Z,15.83
2018-02-18T03:46:26.171Z,15.86
2018-02-18T03:48:52.163Z,15.98
2018-02-18T03:51:17.966Z,15.83
2018-02-18T03:53:43.897Z,15.73
2018-02-18T03:56:09.734Z,15.79
2018-02-18T03:58:35.527Z,15.93
2018-02-18T04:01:01.335Z,15.95
2018-02-18T04:03:27.128Z,15.80
2018-02-18T04:05:52.970Z,15.77
2018-02-18T04:08:18.769Z,15.78
2018-02-18T04:10:44.579Z,15.96
2018-02-18T04:13:10.390Z,15.93
2018-02-18T04:15:37.059Z,16.05
2018-02-18T04:18:02.868Z,15.94
2018-02-18T04:20:28.679Z,15.83
2018-02-18T04:22:54.482Z,15.71
2018-02-18T04:25:20.304Z,15.81
2018-02-18T04:27:46.118Z,15.64
2018-02-18T04:30:11.922Z,15.80
2018-02-18T04:32:37.730Z,15.89
2018-02-18T04:35:03.539Z,15.78
2018-02-18T04:37:29.346Z,15.99
2018-02-18T04:39:55.149Z,16.06
2018-02-18T04:42:20.949Z,15.71
2018-02-18T04:44:46.766Z,15.58
2018-02-18T04:47:12.569Z,15.59
2018-02-18T04:49:38.371Z,15.58
2018-02-18T04:52:04.226Z,15.80
2018-02-18T04:54:30.068Z,15.91
2018-02-18T04:56:55.907Z,15.72
2018-02-18T04:59:21.723Z,15.85
2018-02-18T05:01:47.554Z,15.93
2018-02-18T05:04:13.350Z,15.84
2018-02-18T05:06:39.154Z,15.85
2018-02-18T05:09:04.999Z,15.88
2018-02-18T05:11:30.805Z,15.77
2018-02-18T05:13:56.618Z,15.82
2018-02-18T05:16:22.414Z,15.89
2018-02-18T05:18:48.219Z,15.78
2018-02-18T05:21:14.031Z,15.90
2018-02-18T05:23:39.873Z,15.93
2018-02-18T05:26:05.713Z,15.91
2018-02-18T05:28:31.523Z,15.74
2018-02-18T05:30:57.422Z,15.72
2018-02-18T05:33:23.219Z,15.68
2018-02-18T05:35:49.014Z,15.61
2018-02-18T05:38:14.806Z,15.57
2018-02-18T05:40:40.658Z,15.61
2018-02-18T05:43:06.489Z,15.88
2018-02-18T05:45:32.438Z,15.99
2018-02-18T05:47:58.233Z,15.77
2018-02-18T05:50:24.053Z,15.69
2018-02-18T05:52:49.850Z,15.78
2018-02-18T05:55:15.652Z,15.68
2018-02-18T05:57:41.461Z,15.78
2018-02-18T06:00:07.271Z,15.76
2018-02-18T06:02:33.077Z,15.60
2018-02-18T06:04:58.891Z,15.47
2018-02-18T06:07:24.704Z,15.54
2018-02-18T06:09:50.514Z,15.67
2018-02-18T06:12:16.361Z,15.88
2018-02-18T06:14:42.167Z,15.83
2018-02-18T06:17:07.986Z,15.86
2018-02-18T06:19:33.789Z,15.77
2018-02-18T06:21:59.597Z,15.72
2018-02-18T06:24:25.402Z,15.77
2018-02-18T06:26:51.206Z,15.79
2018-02-18T06:29:17.032Z,15.76
2018-02-18T06:31:42.882Z,15.66
2018-02-18T06:34:08.734Z,15.82
2018-02-18T06:36:34.571Z,15.85
2018-02-18T06:39:00.405Z,15.90
2018-02-18T06:41:26.302Z,15.83
2018-02-18T06:43:52.098Z,15.84
2018-02-18T06:46:17.897Z,15.90
2018-02-18T06:48:43.907Z,15.81
2018-02-18T06:51:09.706Z,15.70
2018-02-18T06:53:35.570Z,15.82
2018-02-18T06:56:01.377Z,16.02
2018-02-18T06:58:27.238Z,15.99
2018-02-18T07:00:53.034Z,15.81
2018-02-18T07:03:18.870Z,15.77
2018-02-18T07:05:44.675Z,15.68
2018-02-18T07:08:10.510Z,15.78
2018-02-18T07:10:36.315Z,15.95
2018-02-18T07:13:02.151Z,15.89
2018-02-18T07:15:27.962Z,15.93
2018-02-18T07:17:53.764Z,15.85
2018-02-18T07:20:19.566Z,15.88
2018-02-18T07:22:45.362Z,15.88
2018-02-18T07:25:11.265Z,15.97
2018-02-18T07:27:37.071Z,15.90
2018-02-18T07:30:02.878Z,15.90
2018-02-18T07:32:28.690Z,15.92
2018-02-18T07:34:55.378Z,15.95
2018-02-18T07:37:21.209Z,16.06
2018-02-18T07:39:47.062Z,15.93
2018-02-18T07:42:12.898Z,15.96
2018-02-18T07:44:38.689Z,16.22
2018-02-18T07:47:04.558Z,16.15
2018-02-18T07:49:30.364Z,16.13
2018-02-18T07:51:56.184Z,16.22
2018-02-18T07:54:22.017Z,16.10
2018-02-18T07:56:47.812Z,16.26
2018-02-18T07:59:13.615Z,16.30
2018-02-18T08:01:39.421Z,16.24
2018-02-18T08:04:05.251Z,16.14
2018-02-18T08:06:31.039Z,16.14
2018-02-18T08:08:56.871Z,16.07
2018-02-18T08:11:22.682Z,15.98
2018-02-18T08:13:48.530Z,16.20
2018-02-18T08:16:14.357Z,16.31
2018-02-18T08:18:40.156Z,16.40
2018-02-18T08:21:05.961Z,16.37
2018-02-18T08:23:31.771Z,16.48
2018-02-18T08:25:57.650Z,16.52
2018-02-18T08:28:23.510Z,16.47
2018-02-18T08:30:49.305Z,16.41
2018-02-18T08:33:15.110Z,16.39
2018-02-18T08:35:40.934Z,16.31
2018-02-18T08:38:06.778Z,16.20
2018-02-18T08:40:32.583Z,16.34
2018-02-18T08:42:58.430Z,16.30
2018-02-18T08:45:24.233Z,16.40
2018-02-18T08:47:50.101Z,16.46
2018-02-18T08:50:15.897Z,16.48
2018-02-18T08:52:41.739Z,16.34
2018-02-18T08:55:07.537Z,16.23
2018-02-18T08:57:33.402Z,16.31
2018-02-18T08:59:59.206Z,16.45
2018-02-18T09:02:25.066Z,16.34
2018-02-18T09:04:50.882Z,16.44
2018-02-18T09:07:16.733Z,16.40
2018-02-18T09:09:42.519Z,16.20
2018-02-18T09:12:08.317Z,16.22
2018-02-18T09:14:34.115Z,16.32
2018-02-18T09:16:59.934Z,16.38
2018-02-18T09:19:25.743Z,16.46
2018-02-18T09:21:51.539Z,16.47
2018-02-18T09:24:17.364Z,16.53
2018-02-18T09:26:43.172Z,16.52
2018-02-18T09:29:08.971Z,16.37
2018-02-18T09:31:34.775Z,16.24
2018-02-18T09:34:00.759Z,16.52
2018-02-18T09:36:26.559Z,16.58
2018-02-18T09:38:52.419Z,16.49
2018-02-18T09:41:18.214Z,16.05
2018-02-18T09:43:44.041Z,14.01
2018-02-18T09:46:09.833Z,13.51
2018-02-18T09:48:35.791Z,15.02
2018-02-18T09:51:01.716Z,15.52
2018-02-18T09:53:27.713Z,15.92
2018-02-18T09:55:53.566Z,16.05
2018-02-18T09:58:19.362Z,16.35
2018-02-18T10:00:45.165Z,16.20
2018-02-18T10:03:11.005Z,16.23
2018-02-18T10:05:36.841Z,16.29
2018-02-18T10:08:02.764Z,16.32
2018-02-18T10:10:28.618Z,16.41
2018-02-18T10:12:54.463Z,16.57
2018-02-18T10:15:20.305Z,16.43
2018-02-18T10:17:46.103Z,16.42
2018-02-18T10:20:11.959Z,16.34
2018-02-18T10:22:37.811Z,16.44
2018-02-18T10:25:03.615Z,16.48
2018-02-18T10:27:29.427Z,16.48
2018-02-18T10:29:55.223Z,16.52
2018-02-18T10:32:22.069Z,16.50
2018-02-18T10:34:47.916Z,16.65
2018-02-18T10:37:13.737Z,16.54
2018-02-18T10:39:39.557Z,16.46
2018-02-18T10:42:05.383Z,16.57
2018-02-18T10:44:31.231Z,16.44
2018-02-18T10:46:57.034Z,16.46
2018-02-18T10:49:22.874Z,16.50
2018-02-18T10:51:48.749Z,16.60
2018-02-18T10:54:14.591Z,16.63
2018-02-18T10:56:40.426Z,16.54
2018-02-18T10:59:06.296Z,16.52
2018-02-18T11:01:32.099Z,16.57
2018-02-18T11:03:57.968Z,16.51
2018-02-18T11:06:23.835Z,16.64
2018-02-18T11:08:49.854Z,16.61
2018-02-18T11:11:15.678Z,16.59
2018-02-18T11:13:42.324Z,16.59
2018-02-18T11:16:08.126Z,16.50
2018-02-18T11:18:33.930Z,16.57
2018-02-18T11:20:59.735Z,16.43
2018-02-18T11:23:25.542Z,16.44
2018-02-18T11:25:51.390Z,16.54
2018-02-18T11:28:17.193Z,16.50
2018-02-18T11:30:43.037Z,16.62
2018-02-18T11:33:08.850Z,16.65
2018-02-18T11:35:34.702Z,16.54
2018-02-18T11:38:00.506Z,16.63
2018-02-18T11:40:26.355Z,16.61
2018-02-18T11:42:52.163Z,16.58
2018-02-18T11:45:17.959Z,16.59
2018-02-18T11:47:43.754Z,16.61
2018-02-18T11:50:09.564Z,16.64
2018-02-18T11:52:35.375Z,16.55
2018-02-18T11:55:01.186Z,16.42
2018-02-18T11:57:26.994Z,16.53
2018-02-18T11:59:52.839Z,16.43
2018-02-18T12:02:18.755Z,16.49
2018-02-18T12:04:44.570Z,16.40
2018-02-18T12:07:10.497Z,16.44
2018-02-18T12:09:36.309Z,16.51
2018-02-18T12:12:02.116Z,16.38
2018-02-18T12:14:27.909Z,16.68
2018-02-18T12:16:53.714Z,16.64
2018-02-18T12:19:19.520Z,16.62
2018-02-18T12:21:45.335Z,16.61
2018-02-18T12:24:11.135Z,16.60
2018-02-18T12:26:36.938Z,16.37
2018-02-18T12:29:02.763Z,16.64
2018-02-18T12:31:28.575Z,16.49
2018-02-18T12:33:54.439Z,16.65
2018-02-18T12:36:20.259Z,16.64
2018-02-18T12:38:46.063Z,16.40
2018-02-18T12:41:11.973Z,16.48
2018-02-18T12:43:37.822Z,16.53
2018-02-18T12:46:03.658Z,16.50
2018-02-18T12:48:29.522Z,16.65
2018-02-18T12:50:55.339Z,16.55
2018-02-18T12:53:21.311Z,16.52
2018-02-18T12:55:47.119Z,16.44
2018-02-18T12:58:12.943Z,16.41
2018-02-18T13:00:38.748Z,16.51
2018-02-18T13:03:04.553Z,16.52
2018-02-18T13:05:30.355Z,16.70
2018-02-18T13:07:56.150Z,16.51
2018-02-18T13:10:21.960Z,16.36
2018-02-18T13:12:47.768Z,16.46
2018-02-18T13:15:13.583Z,16.51
2018-02-18T13:17:39.447Z,16.55
2018-02-18T13:20:05.250Z,16.80
2018-02-18T13:22:31.087Z,16.66
2018-02-18T13:24:56.885Z,16.72
2018-02-18T13:27:22.751Z,16.43
2018-02-18T13:29:48.550Z,16.52
2018-02-18T13:32:14.384Z,16.50
2018-02-18T13:34:40.206Z,16.63
2018-02-18T13:37:06.047Z,16.61
2018-02-18T13:39:31.877Z,16.58
2018-02-18T13:41:57.714Z,16.54
2018-02-18T13:44:23.517Z,16.60
2018-02-18T13:46:49.373Z,16.75
2018-02-18T13:49:15.166Z,16.71
2018-02-18T13:51:41.011Z,16.73
2018-02-18T13:54:06.802Z,16.68
2018-02-18T13:56:32.586Z,16.59
2018-02-18T13:58:58.422Z,16.63
2018-02-18T14:01:24.297Z,16.70
2018-02-18T14:03:50.188Z,16.91
2018-02-18T14:06:15.983Z,16.62
2018-02-18T14:08:41.815Z,16.48
2018-02-18T14:11:07.666Z,16.81
2018-02-18T14:13:33.471Z,16.67
2018-02-18T14:16:00.139Z,16.61
2018-02-18T14:18:25.947Z,16.66
2018-02-18T14:20:51.754Z,16.62
2018-02-18T14:23:17.571Z,16.55
2018-02-18T14:25:43.458Z,16.63
2018-02-18T14:28:09.258Z,16.68
2018-02-18T14:30:35.072Z,16.73
2018-02-18T14:33:00.866Z,16.77
2018-02-18T14:35:26.671Z,16.73
2018-02-18T14:37:52.475Z,16.66
2018-02-18T14:40:18.276Z,16.62
2018-02-18T14:42:50.270Z,16.63
2018-02-18T14:45:22.324Z,16.55
2018-02-18T14:47:54.118Z,16.75
2018-02-18T14:50:26.020Z,16.63
2018-02-18T14:55:53.234Z,16.71
2018-02-18T14:58:19.066Z,16.66
2018-02-18T15:00:44.854Z,16.76
2018-02-18T15:03:10.650Z,16.70
2018-02-18T15:05:36.453Z,16.69
2018-02-18T15:08:02.251Z,16.74
2018-02-18T15:10:28.251Z,16.67
2018-02-18T15:12:54.051Z,16.74
2018-02-18T15:15:19.878Z,16.76
2018-02-18T15:17:46.634Z,16.66
2018-02-18T15:20:12.448Z,16.71
2018-02-18T15:22:38.250Z,16.68
2018-02-18T15:25:04.141Z,16.66
2018-02-18T15:27:29.940Z,16.65
2018-02-18T15:29:55.733Z,16.71
2018-02-18T15:32:21.535Z,16.71
2018-02-18T15:34:47.335Z,16.66
2018-02-18T15:37:13.123Z,16.84
2018-02-18T15:39:38.921Z,16.76
2018-02-18T15:42:04.722Z,16.82
2018-02-18T15:44:30.510Z,16.76
2018-02-18T15:46:56.400Z,16.86
2018-02-18T15:49:22.206Z,16.72
2018-02-18T15:51:48.042Z,16.83
2018-02-18T15:54:13.831Z,16.75
2018-02-18T15:56:39.668Z,16.86
2018-02-18T15:59:05.499Z,16.78
2018-02-18T16:01:31.296Z,16.76
2018-02-18T16:03:57.137Z,16.68
2018-02-18T16:06:22.975Z,16.74
2018-02-18T16:08:48.756Z,16.71
2018-02-18T16:11:14.613Z,16.73
2018-02-18T16:13:40.415Z,16.90
2018-02-18T16:16:06.263Z,16.77
2018-02-18T16:18:32.084Z,16.81
2018-02-18T16:20:57.914Z,16.73
2018-02-18T16:23:23.708Z,16.72
2018-02-18T16:25:49.574Z,16.79
2018-02-18T16:28:15.597Z,16.68
2018-02-18T16:30:41.386Z,16.72
2018-02-18T16:33:07.363Z,16.67
2018-02-18T16:35:33.158Z,16.76
2018-02-18T16:37:58.998Z,16.70
2018-02-18T16:40:24.831Z,16.79
2018-02-18T16:42:50.653Z,16.76
2018-02-18T16:45:16.451Z,15.76
2018-02-18T16:47:42.272Z,16.08
2018-02-18T16:50:08.110Z,16.28
2018-02-18T16:52:33.907Z,16.44
2018-02-18T16:54:59.740Z,16.60
2018-02-18T16:57:25.649Z,16.58
2018-02-18T16:59:51.468Z,16.59
2018-02-18T17:02:17.259Z,16.60
2018-02-18T17:04:43.115Z,16.66
2018-02-18T17:07:08.909Z,16.58
2018-02-18T17:09:34.730Z,16.63
2018-02-18T17:12:00.522Z,16.54
2018-02-18T17:14:26.367Z,16.44
2018-02-18T17:16:52.278Z,16.53
2018-02-18T17:19:18.999Z,16.57
2018-02-18T17:21:44.871Z,16.54
2018-02-18T17:24:10.678Z,16.55
2018-02-18T17:26:36.505Z,16.43
2018-02-18T17:29:02.293Z,16.39
2018-02-18T17:31:28.090Z,16.48
2018-02-18T17:33:53.887Z,16.37
2018-02-18T17:36:19.681Z,16.36
2018-02-18T17:38:46.326Z,16.27
2018-02-18T17:41:12.315Z,16.19
2018-02-18T17:43:38.274Z,16.17
2018-02-18T17:46:04.058Z,16.08
2018-02-18T17:48:29.890Z,16.06
2018-02-18T17:50:55.677Z,16.07
2018-02-18T17:53:22.341Z,16.10
2018-02-18T17:55:49.013Z,16.22
2018-02-18T17:58:14.799Z,16.53
2018-02-18T18:00:40.630Z,16.72
2018-02-18T18:03:06.421Z,16.79
2018-02-18T18:05:32.242Z,16.85
2018-02-18T18:07:58.033Z,16.82
2018-02-18T18:10:23.870Z,16.86
2018-02-18T18:12:49.670Z,16.80
2018-02-18T18:15:15.458Z,16.85
2018-02-18T18:17:41.265Z,16.88
2018-02-18T18:20:07.055Z,16.87
2018-02-18T18:22:32.856Z,16.76
2018-02-18T18:24:58.667Z,16.80
2018-02-18T18:27:24.520Z,16.72
2018-02-18T18:29:50.351Z,16.80
2018-02-18T18:32:16.159Z,16.86
2018-02-18T18:34:41.946Z,16.91
2018-02-18T18:37:07.794Z,16.91
2018-02-18T18:39:33.592Z,16.87
2018-02-18T18:41:59.404Z,16.84
2018-02-18T18:44:25.212Z,16.89
2018-02-18T18:46:51.074Z,16.90
2018-02-18T18:49:16.864Z,16.86
2018-02-18T18:51:42.666Z,16.80
2018-02-18T18:54:08.460Z,16.82
2018-02-18T18:56:34.287Z,16.74
2018-02-18T18:59:00.092Z,16.89
2018-02-18T19:01:26.444Z,16.75
2018-02-18T19:03:52.239Z,16.63
2018-02-18T19:06:18.071Z,16.61
2018-02-18T19:08:43.991Z,16.70
2018-02-18T19:11:09.921Z,16.76
2018-02-18T19:13:35.721Z,16.79
2018-02-18T19:16:01.570Z,16.93
2018-02-18T19:18:27.368Z,16.88
2018-02-18T19:20:53.159Z,16.76
2018-02-18T19:23:18.992Z,16.72
2018-02-18T19:25:44.831Z,16.74
2018-02-18T19:28:10.651Z,16.75
2018-02-18T19:30:37.423Z,16.69
2018-02-18T19:33:03.251Z,16.65
2018-02-18T19:35:29.078Z,16.62
2018-02-18T19:37:54.876Z,16.73
2018-02-18T19:40:20.710Z,16.84
2018-02-18T19:42:46.501Z,16.75
2018-02-18T19:45:12.335Z,16.87
2018-02-18T19:47:38.139Z,16.89
2018-02-18T19:50:03.990Z,16.89
2018-02-18T19:52:30.808Z,16.89
2018-02-18T19:54:56.655Z,16.80
2018-02-18T19:57:22.517Z,16.81
2018-02-18T19:59:48.387Z,16.85
2018-02-18T20:02:14.227Z,16.84
2018-02-18T20:04:40.034Z,16.85
2018-02-18T20:07:06.075Z,16.71
2018-02-18T20:09:31.878Z,16.77
2018-02-18T20:11:57.704Z,16.69
2018-02-18T20:14:23.501Z,16.69
2018-02-18T20:16:49.341Z,16.68
2018-02-18T20:19:15.210Z,16.64
2018-02-18T20:21:41.289Z,16.74
2018-02-18T20:24:07.162Z,16.81
2018-02-18T20:26:33.016Z,16.76
2018-02-18T20:28:58.851Z,16.77
2018-02-18T20:31:24.763Z,16.68
2018-02-18T20:33:50.563Z,16.74
2018-02-18T20:36:16.470Z,16.74
2018-02-18T20:38:42.271Z,16.68
2018-02-18T20:41:08.092Z,16.79
2018-02-18T20:43:33.887Z,16.77
2018-02-18T20:45:59.856Z,16.75
2018-02-18T20:48:25.777Z,16.71
2018-02-18T20:50:51.716Z,16.62
2018-02-18T20:53:17.507Z,16.62
2018-02-18T20:55:43.476Z,16.64
2018-02-18T20:58:09.318Z,16.81
2018-02-18T21:00:36.215Z,16.73
2018-02-18T21:03:02.007Z,16.69
2018-02-18T21:05:27.802Z,16.68
2018-02-18T21:07:53.595Z,16.65
2018-02-18T21:10:19.390Z,16.68
2018-02-18T21:12:45.295Z,16.64
2018-02-18T21:15:11.078Z,16.68
2018-02-18T21:17:36.876Z,16.69
2018-02-18T21:20:02.687Z,16.67
2018-02-18T21:22:28.527Z,16.81
2018-02-18T21:24:54.317Z,16.76
2018-02-18T21:27:20.112Z,16.79
2018-02-18T21:29:46.573Z,16.82
2018-02-18T21:32:12.415Z,16.74
2018-02-18T21:34:38.211Z,16.59
2018-02-18T21:37:04.003Z,16.54
2018-02-18T21:39:29.798Z,16.59
2018-02-18T21:41:56.677Z,16.68
2018-02-18T21:44:22.514Z,16.66
2018-02-18T21:46:48.518Z,16.77
2018-02-18T21:49:14.306Z,16.81
2018-02-18T21:51:40.112Z,16.86
2018-02-18T21:54:06.082Z,16.80
2018-02-18T21:56:31.880Z,16.86
2018-02-18T21:58:57.676Z,16.73
2018-02-18T22:01:23.507Z,16.85
2018-02-18T22:03:49.339Z,16.90
2018-02-18T22:06:15.126Z,16.85
2018-02-18T22:08:40.966Z,16.83
2018-02-18T22:11:06.771Z,16.71
2018-02-18T22:13:32.558Z,16.84
2018-02-18T22:15:58.452Z,16.79
2018-02-18T22:18:24.246Z,16.81
2018-02-18T22:20:50.035Z,16.81
2018-02-18T22:23:15.840Z,16.92
2018-02-18T22:25:41.638Z,16.73
2018-02-18T22:28:07.551Z,16.65
2018-02-18T22:30:33.379Z,16.75
2018-02-18T22:32:59.297Z,16.79
2018-02-18T22:35:25.100Z,16.78
2018-02-18T22:37:50.891Z,16.74
2018-02-18T22:40:16.686Z,16.65
2018-02-18T22:42:42.488Z,16.62
2018-02-18T22:45:08.279Z,16.73
2018-02-18T22:47:34.142Z,16.74
2018-02-18T22:49:59.935Z,16.61
2018-02-18T22:52:25.800Z,16.71
2018-02-18T22:54:51.663Z,16.73
2018-02-18T22:57:17.493Z,16.65
2018-02-18T22:59:43.291Z,16.55
2018-02-18T23:02:09.111Z,16.61
2018-02-18T23:04:34.974Z,16.69
2018-02-18T23:07:06.600Z,16.76
2018-02-18T23:09:32.418Z,16.69
2018-02-18T23:11:58.203Z,16.53
2018-02-18T23:14:24.039Z,16.53
2018-02-18T23:16:49.838Z,16.60
2018-02-18T23:19:15.632Z,16.56
2018-02-18T23:21:41.453Z,16.60
2018-02-18T23:24:07.233Z,16.55
2018-02-18T23:26:33.053Z,16.66
2018-02-18T23:28:58.841Z,16.51
2018-02-18T23:31:24.700Z,16.54
2018-02-18T23:33:50.493Z,16.41
2018-02-18T23:36:16.287Z,16.50
2018-02-18T23:38:42.310Z,16.49
2018-02-18T23:41:08.178Z,16.61
2018-02-18T23:43:33.971Z,16.59
2018-02-18T23:45:59.763Z,16.51
2018-02-18T23:48:25.587Z,16.42
2018-02-18T23:50:51.421Z,16.58
2018-02-18T23:53:17.410Z,16.57
2018-02-18T23:55:44.375Z,16.64
2018-02-18T23:58:10.213Z,16.70
